sensor_id;sensor_type;location;lat;lon;timestamp;P1;durP1;ratioP1;P2;durP2;ratioP2
65835;SDS011;52595;51.608;7.216;2023-10-09T00:00:15;24.20;;;11.43;;
65835;SDS011;52595;51.608;7.216;2023-10-09T00:02:56;25.98;;;11.77;;
65835;SDS011;52595;51.608;7.216;2023-10-09T00:05:25;27.17;;;11.73;;
65835;SDS011;52595;51.608;7.216;2023-10-09T00:08:12;22.92;;;11.68;;
65835;SDS011;52595;51.608;7.216;2023-10-09T00:10:50;25.27;;;10.93;;
65835;SDS011;52595;51.608;7.216;2023-10-09T00:13:20;28.33;;;12.55;;
65835;SDS011;52595;51.608;7.216;2023-10-09T00:15:53;29.05;;;12.80;;
65835;SDS011;52595;51.608;7.216;2023-10-09T00:18:24;27.95;;;12.43;;
65835;SDS011;52595;51.608;7.216;2023-10-09T00:20:54;32.37;;;12.80;;
65835;SDS011;52595;51.608;7.216;2023-10-09T00:23:37;28.58;;;13.00;;
65835;SDS011;52595;51.608;7.216;2023-10-09T00:26:03;28.70;;;12.98;;
65835;SDS011;52595;51.608;7.216;2023-10-09T00:28:41;29.00;;;12.40;;
65835;SDS011;52595;51.608;7.216;2023-10-09T00:31:11;29.38;;;13.10;;
65835;SDS011;52595;51.608;7.216;2023-10-09T00:33:41;30.42;;;13.38;;
65835;SDS011;52595;51.608;7.216;2023-10-09T00:36:07;32.05;;;13.32;;
65835;SDS011;52595;51.608;7.216;2023-10-09T00:38:36;30.15;;;13.00;;
65835;SDS011;52595;51.608;7.216;2023-10-09T00:41:10;29.40;;;13.52;;
65835;SDS011;52595;51.608;7.216;2023-10-09T00:43:36;27.98;;;13.38;;
65835;SDS011;52595;51.608;7.216;2023-10-09T00:46:02;32.80;;;13.93;;
65835;SDS011;52595;51.608;7.216;2023-10-09T00:48:48;27.25;;;12.60;;
65835;SDS011;52595;51.608;7.216;2023-10-09T00:51:19;26.40;;;12.80;;
65835;SDS011;52595;51.608;7.216;2023-10-09T00:53:54;29.38;;;13.68;;
65835;SDS011;52595;51.608;7.216;2023-10-09T00:56:23;25.48;;;13.10;;
65835;SDS011;52595;51.608;7.216;2023-10-09T00:58:51;28.92;;;13.18;;
65835;SDS011;52595;51.608;7.216;2023-10-09T01:01:24;29.48;;;13.10;;
65835;SDS011;52595;51.608;7.216;2023-10-09T01:04:00;32.55;;;13.13;;
65835;SDS011;52595;51.608;7.216;2023-10-09T01:06:43;28.60;;;13.18;;
65835;SDS011;52595;51.608;7.216;2023-10-09T01:09:15;28.20;;;13.20;;
65835;SDS011;52595;51.608;7.216;2023-10-09T01:11:45;28.10;;;13.73;;
65835;SDS011;52595;51.608;7.216;2023-10-09T01:14:14;31.00;;;13.65;;
65835;SDS011;52595;51.608;7.216;2023-10-09T01:16:40;29.15;;;13.80;;
65835;SDS011;52595;51.608;7.216;2023-10-09T01:19:07;37.35;;;14.75;;
65835;SDS011;52595;51.608;7.216;2023-10-09T01:21:38;33.55;;;14.02;;
65835;SDS011;52595;51.608;7.216;2023-10-09T01:24:05;34.53;;;14.80;;
65835;SDS011;52595;51.608;7.216;2023-10-09T01:26:40;32.80;;;15.63;;
65835;SDS011;52595;51.608;7.216;2023-10-09T01:29:19;29.65;;;14.25;;
65835;SDS011;52595;51.608;7.216;2023-10-09T01:31:49;34.92;;;14.88;;
65835;SDS011;52595;51.608;7.216;2023-10-09T01:34:24;34.40;;;15.45;;
65835;SDS011;52595;51.608;7.216;2023-10-09T01:37:06;35.08;;;14.98;;
65835;SDS011;52595;51.608;7.216;2023-10-09T01:39:51;27.60;;;13.88;;
65835;SDS011;52595;51.608;7.216;2023-10-09T01:42:18;28.73;;;14.63;;
65835;SDS011;52595;51.608;7.216;2023-10-09T01:45:00;32.50;;;14.95;;
65835;SDS011;52595;51.608;7.216;2023-10-09T01:47:41;27.83;;;14.52;;
65835;SDS011;52595;51.608;7.216;2023-10-09T01:50:11;36.08;;;15.20;;
65835;SDS011;52595;51.608;7.216;2023-10-09T01:52:44;30.20;;;14.30;;
65835;SDS011;52595;51.608;7.216;2023-10-09T01:55:10;31.05;;;14.85;;
65835;SDS011;52595;51.608;7.216;2023-10-09T01:57:52;29.20;;;14.68;;
65835;SDS011;52595;51.608;7.216;2023-10-09T02:00:17;32.20;;;14.70;;
65835;SDS011;52595;51.608;7.216;2023-10-09T02:02:48;33.40;;;15.10;;
65835;SDS011;52595;51.608;7.216;2023-10-09T02:05:15;31.05;;;16.17;;
65835;SDS011;52595;51.608;7.216;2023-10-09T02:07:43;34.63;;;15.13;;
65835;SDS011;52595;51.608;7.216;2023-10-09T02:10:18;33.92;;;15.00;;
65835;SDS011;52595;51.608;7.216;2023-10-09T02:12:56;33.10;;;14.93;;
65835;SDS011;52595;51.608;7.216;2023-10-09T02:15:36;30.33;;;15.15;;
65835;SDS011;52595;51.608;7.216;2023-10-09T02:18:09;35.28;;;15.63;;
65835;SDS011;52595;51.608;7.216;2023-10-09T02:21:05;34.35;;;15.40;;
65835;SDS011;52595;51.608;7.216;2023-10-09T02:23:32;30.17;;;15.05;;
65835;SDS011;52595;51.608;7.216;2023-10-09T02:26:15;31.20;;;15.25;;
65835;SDS011;52595;51.608;7.216;2023-10-09T02:28:44;29.80;;;14.68;;
65835;SDS011;52595;51.608;7.216;2023-10-09T02:31:14;32.28;;;14.75;;
65835;SDS011;52595;51.608;7.216;2023-10-09T02:33:39;34.47;;;15.27;;
65835;SDS011;52595;51.608;7.216;2023-10-09T02:36:05;28.80;;;14.88;;
65835;SDS011;52595;51.608;7.216;2023-10-09T02:38:32;30.17;;;15.07;;
65835;SDS011;52595;51.608;7.216;2023-10-09T02:41:06;30.75;;;14.32;;
65835;SDS011;52595;51.608;7.216;2023-10-09T02:43:34;24.75;;;13.27;;
65835;SDS011;52595;51.608;7.216;2023-10-09T02:46:19;28.25;;;14.25;;
65835;SDS011;52595;51.608;7.216;2023-10-09T02:48:48;28.90;;;13.82;;
65835;SDS011;52595;51.608;7.216;2023-10-09T02:51:20;31.88;;;14.10;;
65835;SDS011;52595;51.608;7.216;2023-10-09T02:53:58;29.83;;;14.23;;
65835;SDS011;52595;51.608;7.216;2023-10-09T02:56:31;24.45;;;14.20;;
65835;SDS011;52595;51.608;7.216;2023-10-09T02:59:06;27.67;;;13.68;;
65835;SDS011;52595;51.608;7.216;2023-10-09T03:01:31;26.30;;;13.60;;
65835;SDS011;52595;51.608;7.216;2023-10-09T03:03:59;26.42;;;13.73;;
65835;SDS011;52595;51.608;7.216;2023-10-09T03:06:27;27.02;;;14.40;;
65835;SDS011;52595;51.608;7.216;2023-10-09T03:08:56;28.98;;;13.23;;
65835;SDS011;52595;51.608;7.216;2023-10-09T03:11:22;26.38;;;12.60;;
65835;SDS011;52595;51.608;7.216;2023-10-09T03:13:48;27.60;;;13.20;;
65835;SDS011;52595;51.608;7.216;2023-10-09T03:16:14;28.75;;;12.73;;
65835;SDS011;52595;51.608;7.216;2023-10-09T03:18:50;23.70;;;12.57;;
65835;SDS011;52595;51.608;7.216;2023-10-09T03:21:21;26.77;;;13.05;;
65835;SDS011;52595;51.608;7.216;2023-10-09T03:23:47;25.80;;;13.52;;
65835;SDS011;52595;51.608;7.216;2023-10-09T03:26:15;25.08;;;13.07;;
65835;SDS011;52595;51.608;7.216;2023-10-09T03:28:47;24.90;;;13.35;;
65835;SDS011;52595;51.608;7.216;2023-10-09T03:31:13;28.60;;;13.43;;
65835;SDS011;52595;51.608;7.216;2023-10-09T03:33:39;26.23;;;13.07;;
65835;SDS011;52595;51.608;7.216;2023-10-09T03:36:05;28.85;;;13.90;;
65835;SDS011;52595;51.608;7.216;2023-10-09T03:38:32;25.42;;;13.40;;
65835;SDS011;52595;51.608;7.216;2023-10-09T03:41:02;25.15;;;13.18;;
65835;SDS011;52595;51.608;7.216;2023-10-09T03:43:38;23.27;;;12.30;;
65835;SDS011;52595;51.608;7.216;2023-10-09T03:46:09;25.80;;;13.70;;
65835;SDS011;52595;51.608;7.216;2023-10-09T03:48:51;24.77;;;13.35;;
65835;SDS011;52595;51.608;7.216;2023-10-09T03:51:17;21.38;;;12.43;;
65835;SDS011;52595;51.608;7.216;2023-10-09T03:53:50;26.90;;;13.05;;
65835;SDS011;52595;51.608;7.216;2023-10-09T03:56:17;24.42;;;12.65;;
65835;SDS011;52595;51.608;7.216;2023-10-09T03:58:47;26.17;;;13.02;;
65835;SDS011;52595;51.608;7.216;2023-10-09T04:01:25;23.92;;;12.20;;
65835;SDS011;52595;51.608;7.216;2023-10-09T04:04:06;24.50;;;12.80;;
65835;SDS011;52595;51.608;7.216;2023-10-09T04:06:33;22.27;;;12.85;;
65835;SDS011;52595;51.608;7.216;2023-10-09T04:09:02;21.23;;;12.10;;
65835;SDS011;52595;51.608;7.216;2023-10-09T04:11:52;23.60;;;12.57;;
65835;SDS011;52595;51.608;7.216;2023-10-09T04:14:37;24.30;;;13.15;;
65835;SDS011;52595;51.608;7.216;2023-10-09T04:17:12;20.70;;;12.13;;
65835;SDS011;52595;51.608;7.216;2023-10-09T04:19:44;23.20;;;12.40;;
65835;SDS011;52595;51.608;7.216;2023-10-09T04:22:44;25.02;;;13.15;;
65835;SDS011;52595;51.608;7.216;2023-10-09T04:25:20;25.52;;;12.95;;
65835;SDS011;52595;51.608;7.216;2023-10-09T04:28:03;21.40;;;12.50;;
65835;SDS011;52595;51.608;7.216;2023-10-09T04:30:43;22.17;;;12.27;;
65835;SDS011;52595;51.608;7.216;2023-10-09T04:33:12;22.42;;;11.70;;
65835;SDS011;52595;51.608;7.216;2023-10-09T04:36:02;24.08;;;11.88;;
65835;SDS011;52595;51.608;7.216;2023-10-09T04:38:55;25.48;;;11.95;;
65835;SDS011;52595;51.608;7.216;2023-10-09T04:41:31;22.02;;;12.07;;
65835;SDS011;52595;51.608;7.216;2023-10-09T04:44:17;20.02;;;11.27;;
65835;SDS011;52595;51.608;7.216;2023-10-09T04:46:54;24.25;;;10.77;;
65835;SDS011;52595;51.608;7.216;2023-10-09T04:49:36;21.23;;;10.07;;
65835;SDS011;52595;51.608;7.216;2023-10-09T04:52:16;19.35;;;11.07;;
65835;SDS011;52595;51.608;7.216;2023-10-09T04:55:05;21.58;;;11.57;;
65835;SDS011;52595;51.608;7.216;2023-10-09T04:57:32;20.85;;;11.00;;
65835;SDS011;52595;51.608;7.216;2023-10-09T05:00:06;19.98;;;10.80;;
65835;SDS011;52595;51.608;7.216;2023-10-09T05:02:47;19.52;;;9.98;;
65835;SDS011;52595;51.608;7.216;2023-10-09T05:05:19;19.17;;;11.48;;
65835;SDS011;52595;51.608;7.216;2023-10-09T05:08:04;18.60;;;10.23;;
65835;SDS011;52595;51.608;7.216;2023-10-09T05:11:03;19.80;;;10.27;;
65835;SDS011;52595;51.608;7.216;2023-10-09T05:13:29;17.85;;;10.30;;
65835;SDS011;52595;51.608;7.216;2023-10-09T05:16:16;19.42;;;10.25;;
65835;SDS011;52595;51.608;7.216;2023-10-09T05:18:56;33.70;;;9.70;;
65835;SDS011;52595;51.608;7.216;2023-10-09T05:24:09;18.85;;;9.32;;
65835;SDS011;52595;51.608;7.216;2023-10-09T05:26:45;20.15;;;9.75;;
65835;SDS011;52595;51.608;7.216;2023-10-09T05:29:15;17.83;;;9.52;;
65835;SDS011;52595;51.608;7.216;2023-10-09T05:31:59;22.65;;;10.30;;
65835;SDS011;52595;51.608;7.216;2023-10-09T05:34:37;19.55;;;10.38;;
65835;SDS011;52595;51.608;7.216;2023-10-09T05:37:23;21.83;;;10.05;;
65835;SDS011;52595;51.608;7.216;2023-10-09T05:39:57;21.58;;;9.60;;
65835;SDS011;52595;51.608;7.216;2023-10-09T05:42:27;19.58;;;9.90;;
65835;SDS011;52595;51.608;7.216;2023-10-09T05:45:07;16.95;;;10.48;;
65835;SDS011;52595;51.608;7.216;2023-10-09T05:47:49;22.30;;;9.88;;
65835;SDS011;52595;51.608;7.216;2023-10-09T05:50:21;21.52;;;10.00;;
65835;SDS011;52595;51.608;7.216;2023-10-09T05:52:51;20.83;;;10.38;;
65835;SDS011;52595;51.608;7.216;2023-10-09T05:55:18;18.00;;;10.00;;
65835;SDS011;52595;51.608;7.216;2023-10-09T05:58:08;21.83;;;10.48;;
65835;SDS011;52595;51.608;7.216;2023-10-09T06:00:52;16.65;;;9.90;;
65835;SDS011;52595;51.608;7.216;2023-10-09T06:03:36;16.88;;;9.98;;
65835;SDS011;52595;51.608;7.216;2023-10-09T06:06:14;21.73;;;9.50;;
65835;SDS011;52595;51.608;7.216;2023-10-09T06:09:07;18.13;;;9.77;;
65835;SDS011;52595;51.608;7.216;2023-10-09T06:11:38;19.38;;;9.80;;
65835;SDS011;52595;51.608;7.216;2023-10-09T06:14:04;20.65;;;10.27;;
65835;SDS011;52595;51.608;7.216;2023-10-09T06:16:36;20.38;;;9.80;;
65835;SDS011;52595;51.608;7.216;2023-10-09T06:19:21;19.13;;;10.00;;
65835;SDS011;52595;51.608;7.216;2023-10-09T06:21:47;18.55;;;10.02;;
65835;SDS011;52595;51.608;7.216;2023-10-09T06:24:31;18.63;;;9.88;;
65835;SDS011;52595;51.608;7.216;2023-10-09T06:27:15;20.35;;;9.82;;
65835;SDS011;52595;51.608;7.216;2023-10-09T06:30:01;19.52;;;9.82;;
65835;SDS011;52595;51.608;7.216;2023-10-09T06:32:55;21.25;;;9.98;;
65835;SDS011;52595;51.608;7.216;2023-10-09T06:35:44;16.25;;;9.50;;
65835;SDS011;52595;51.608;7.216;2023-10-09T06:38:18;22.88;;;10.40;;
65835;SDS011;52595;51.608;7.216;2023-10-09T06:40:49;19.40;;;10.75;;
65835;SDS011;52595;51.608;7.216;2023-10-09T06:43:47;19.13;;;10.68;;
65835;SDS011;52595;51.608;7.216;2023-10-09T06:46:18;18.60;;;9.98;;
65835;SDS011;52595;51.608;7.216;2023-10-09T06:48:46;22.23;;;10.80;;
65835;SDS011;52595;51.608;7.216;2023-10-09T06:51:21;18.38;;;10.18;;
65835;SDS011;52595;51.608;7.216;2023-10-09T06:53:53;19.63;;;10.07;;
65835;SDS011;52595;51.608;7.216;2023-10-09T06:56:20;16.63;;;10.25;;
65835;SDS011;52595;51.608;7.216;2023-10-09T06:58:58;18.70;;;11.20;;
65835;SDS011;52595;51.608;7.216;2023-10-09T07:01:29;20.58;;;10.63;;
65835;SDS011;52595;51.608;7.216;2023-10-09T07:04:03;18.40;;;11.40;;
65835;SDS011;52595;51.608;7.216;2023-10-09T07:06:47;18.55;;;10.70;;
65835;SDS011;52595;51.608;7.216;2023-10-09T07:09:16;17.55;;;10.40;;
65835;SDS011;52595;51.608;7.216;2023-10-09T07:11:50;24.23;;;10.82;;
65835;SDS011;52595;51.608;7.216;2023-10-09T07:14:17;24.83;;;10.82;;
65835;SDS011;52595;51.608;7.216;2023-10-09T07:16:59;19.65;;;10.50;;
65835;SDS011;52595;51.608;7.216;2023-10-09T07:19:43;18.23;;;10.50;;
65835;SDS011;52595;51.608;7.216;2023-10-09T07:22:09;20.15;;;10.85;;
65835;SDS011;52595;51.608;7.216;2023-10-09T07:24:47;19.25;;;11.23;;
65835;SDS011;52595;51.608;7.216;2023-10-09T07:27:49;24.40;;;11.00;;
65835;SDS011;52595;51.608;7.216;2023-10-09T07:30:19;19.15;;;10.48;;
65835;SDS011;52595;51.608;7.216;2023-10-09T07:35:35;23.70;;;11.38;;
65835;SDS011;52595;51.608;7.216;2023-10-09T07:38:23;20.52;;;10.95;;
65835;SDS011;52595;51.608;7.216;2023-10-09T07:41:02;23.38;;;10.38;;
65835;SDS011;52595;51.608;7.216;2023-10-09T07:43:35;20.17;;;10.90;;
65835;SDS011;52595;51.608;7.216;2023-10-09T07:46:04;17.60;;;10.43;;
65835;SDS011;52595;51.608;7.216;2023-10-09T07:48:49;17.75;;;10.52;;
65835;SDS011;52595;51.608;7.216;2023-10-09T07:51:17;20.08;;;10.50;;
65835;SDS011;52595;51.608;7.216;2023-10-09T07:53:45;19.38;;;10.85;;
65835;SDS011;52595;51.608;7.216;2023-10-09T07:56:11;23.17;;;11.00;;
65835;SDS011;52595;51.608;7.216;2023-10-09T07:58:39;20.60;;;10.88;;
65835;SDS011;52595;51.608;7.216;2023-10-09T08:01:14;20.63;;;10.80;;
65835;SDS011;52595;51.608;7.216;2023-10-09T08:04:00;20.10;;;11.15;;
65835;SDS011;52595;51.608;7.216;2023-10-09T08:06:45;19.00;;;10.90;;
65835;SDS011;52595;51.608;7.216;2023-10-09T08:09:12;20.75;;;10.88;;
65835;SDS011;52595;51.608;7.216;2023-10-09T08:11:38;21.38;;;11.73;;
65835;SDS011;52595;51.608;7.216;2023-10-09T08:14:10;22.23;;;11.30;;
65835;SDS011;52595;51.608;7.216;2023-10-09T08:16:58;19.33;;;10.38;;
65835;SDS011;52595;51.608;7.216;2023-10-09T08:19:41;23.42;;;11.30;;
65835;SDS011;52595;51.608;7.216;2023-10-09T08:22:20;17.92;;;10.98;;
65835;SDS011;52595;51.608;7.216;2023-10-09T08:24:50;19.65;;;10.68;;
65835;SDS011;52595;51.608;7.216;2023-10-09T08:27:22;18.30;;;11.00;;
65835;SDS011;52595;51.608;7.216;2023-10-09T08:30:04;19.75;;;11.35;;
65835;SDS011;52595;51.608;7.216;2023-10-09T08:32:46;18.10;;;10.88;;
65835;SDS011;52595;51.608;7.216;2023-10-09T08:35:33;18.10;;;10.27;;
65835;SDS011;52595;51.608;7.216;2023-10-09T08:38:00;22.08;;;11.60;;
65835;SDS011;52595;51.608;7.216;2023-10-09T08:43:08;19.10;;;11.13;;
65835;SDS011;52595;51.608;7.216;2023-10-09T08:45:35;19.50;;;11.53;;
65835;SDS011;52595;51.608;7.216;2023-10-09T08:48:08;17.63;;;11.00;;
65835;SDS011;52595;51.608;7.216;2023-10-09T08:50:40;21.50;;;11.90;;
65835;SDS011;52595;51.608;7.216;2023-10-09T08:53:07;21.23;;;11.45;;
65835;SDS011;52595;51.608;7.216;2023-10-09T08:55:35;22.70;;;12.30;;
65835;SDS011;52595;51.608;7.216;2023-10-09T08:58:01;18.58;;;11.20;;
65835;SDS011;52595;51.608;7.216;2023-10-09T09:00:30;23.92;;;12.02;;
65835;SDS011;52595;51.608;7.216;2023-10-09T09:02:58;20.15;;;12.02;;
65835;SDS011;52595;51.608;7.216;2023-10-09T09:05:26;27.33;;;12.77;;
65835;SDS011;52595;51.608;7.216;2023-10-09T09:07:55;20.65;;;11.50;;
65835;SDS011;52595;51.608;7.216;2023-10-09T09:10:27;18.33;;;11.95;;
65835;SDS011;52595;51.608;7.216;2023-10-09T09:13:04;19.65;;;11.35;;
65835;SDS011;52595;51.608;7.216;2023-10-09T09:15:30;24.60;;;11.55;;
65835;SDS011;52595;51.608;7.216;2023-10-09T09:18:03;21.58;;;12.27;;
65835;SDS011;52595;51.608;7.216;2023-10-09T09:20:36;21.63;;;11.50;;
65835;SDS011;52595;51.608;7.216;2023-10-09T09:23:05;23.50;;;11.43;;
65835;SDS011;52595;51.608;7.216;2023-10-09T09:25:41;16.23;;;9.70;;
65835;SDS011;52595;51.608;7.216;2023-10-09T09:28:13;19.00;;;10.38;;
65835;SDS011;52595;51.608;7.216;2023-10-09T09:30:51;19.35;;;10.32;;
65835;SDS011;52595;51.608;7.216;2023-10-09T09:33:25;18.95;;;10.50;;
65835;SDS011;52595;51.608;7.216;2023-10-09T09:36:10;20.95;;;10.80;;
65835;SDS011;52595;51.608;7.216;2023-10-09T09:38:38;18.27;;;10.10;;
65835;SDS011;52595;51.608;7.216;2023-10-09T09:41:13;15.20;;;9.65;;
65835;SDS011;52595;51.608;7.216;2023-10-09T09:43:49;17.33;;;9.77;;
65835;SDS011;52595;51.608;7.216;2023-10-09T09:46:26;17.70;;;10.65;;
65835;SDS011;52595;51.608;7.216;2023-10-09T09:49:05;19.10;;;10.48;;
65835;SDS011;52595;51.608;7.216;2023-10-09T09:51:41;19.17;;;10.98;;
65835;SDS011;52595;51.608;7.216;2023-10-09T09:54:11;17.35;;;9.70;;
65835;SDS011;52595;51.608;7.216;2023-10-09T09:56:40;19.90;;;9.95;;
65835;SDS011;52595;51.608;7.216;2023-10-09T09:59:09;20.33;;;10.82;;
65835;SDS011;52595;51.608;7.216;2023-10-09T10:01:46;21.63;;;10.32;;
65835;SDS011;52595;51.608;7.216;2023-10-09T10:04:21;16.92;;;10.27;;
65835;SDS011;52595;51.608;7.216;2023-10-09T10:06:51;18.50;;;10.70;;
65835;SDS011;52595;51.608;7.216;2023-10-09T10:09:36;21.48;;;10.57;;
65835;SDS011;52595;51.608;7.216;2023-10-09T10:12:04;18.80;;;10.13;;
65835;SDS011;52595;51.608;7.216;2023-10-09T10:14:53;20.45;;;10.90;;
65835;SDS011;52595;51.608;7.216;2023-10-09T10:17:24;16.73;;;10.07;;
65835;SDS011;52595;51.608;7.216;2023-10-09T10:20:05;17.42;;;10.02;;
65835;SDS011;52595;51.608;7.216;2023-10-09T10:22:44;17.67;;;10.55;;
65835;SDS011;52595;51.608;7.216;2023-10-09T10:30:46;20.55;;;10.48;;
65835;SDS011;52595;51.608;7.216;2023-10-09T10:33:11;20.58;;;10.55;;
65835;SDS011;52595;51.608;7.216;2023-10-09T10:35:43;17.45;;;9.77;;
65835;SDS011;52595;51.608;7.216;2023-10-09T10:41:11;16.33;;;8.73;;
65835;SDS011;52595;51.608;7.216;2023-10-09T10:43:47;23.95;;;9.75;;
65835;SDS011;52595;51.608;7.216;2023-10-09T10:46:22;18.35;;;9.30;;
65835;SDS011;52595;51.608;7.216;2023-10-09T10:48:54;14.90;;;8.48;;
65835;SDS011;52595;51.608;7.216;2023-10-09T10:51:26;20.67;;;10.25;;
65835;SDS011;52595;51.608;7.216;2023-10-09T10:54:02;17.58;;;9.43;;
65835;SDS011;52595;51.608;7.216;2023-10-09T10:56:48;17.98;;;9.60;;
65835;SDS011;52595;51.608;7.216;2023-10-09T10:59:14;17.23;;;9.70;;
65835;SDS011;52595;51.608;7.216;2023-10-09T11:01:48;15.35;;;8.70;;
65835;SDS011;52595;51.608;7.216;2023-10-09T11:04:26;15.48;;;8.95;;
65835;SDS011;52595;51.608;7.216;2023-10-09T11:06:56;16.70;;;8.68;;
65835;SDS011;52595;51.608;7.216;2023-10-09T11:09:42;16.42;;;8.90;;
65835;SDS011;52595;51.608;7.216;2023-10-09T11:15:07;16.38;;;9.18;;
65835;SDS011;52595;51.608;7.216;2023-10-09T11:18:00;16.23;;;8.93;;
65835;SDS011;52595;51.608;7.216;2023-10-09T11:20:35;17.00;;;9.07;;
65835;SDS011;52595;51.608;7.216;2023-10-09T11:23:04;18.17;;;9.57;;
65835;SDS011;52595;51.608;7.216;2023-10-09T11:25:40;15.68;;;9.15;;
65835;SDS011;52595;51.608;7.216;2023-10-09T11:28:18;19.80;;;9.65;;
65835;SDS011;52595;51.608;7.216;2023-10-09T11:30:55;16.33;;;9.70;;
65835;SDS011;52595;51.608;7.216;2023-10-09T11:33:41;16.42;;;9.43;;
65835;SDS011;52595;51.608;7.216;2023-10-09T11:36:10;19.02;;;9.10;;
65835;SDS011;52595;51.608;7.216;2023-10-09T11:38:37;17.23;;;9.70;;
65835;SDS011;52595;51.608;7.216;2023-10-09T11:41:15;16.63;;;9.15;;
65835;SDS011;52595;51.608;7.216;2023-10-09T11:43:48;17.08;;;9.68;;
65835;SDS011;52595;51.608;7.216;2023-10-09T11:46:23;19.60;;;10.65;;
65835;SDS011;52595;51.608;7.216;2023-10-09T11:49:18;17.63;;;9.30;;
65835;SDS011;52595;51.608;7.216;2023-10-09T11:51:46;18.60;;;10.20;;
65835;SDS011;52595;51.608;7.216;2023-10-09T11:54:35;19.45;;;10.10;;
65835;SDS011;52595;51.608;7.216;2023-10-09T11:57:01;19.75;;;9.23;;
65835;SDS011;52595;51.608;7.216;2023-10-09T11:59:29;17.60;;;9.25;;
65835;SDS011;52595;51.608;7.216;2023-10-09T12:02:03;18.25;;;9.55;;
65835;SDS011;52595;51.608;7.216;2023-10-09T12:04:30;14.32;;;9.02;;
65835;SDS011;52595;51.608;7.216;2023-10-09T12:06:58;16.20;;;9.27;;
65835;SDS011;52595;51.608;7.216;2023-10-09T12:09:33;18.23;;;9.20;;
65835;SDS011;52595;51.608;7.216;2023-10-09T12:12:07;15.00;;;9.45;;
65835;SDS011;52595;51.608;7.216;2023-10-09T12:14:36;17.73;;;9.85;;
65835;SDS011;52595;51.608;7.216;2023-10-09T12:17:05;19.42;;;9.50;;
65835;SDS011;52595;51.608;7.216;2023-10-09T12:19:35;18.25;;;9.43;;
65835;SDS011;52595;51.608;7.216;2023-10-09T12:22:03;17.33;;;9.50;;
65835;SDS011;52595;51.608;7.216;2023-10-09T12:24:30;20.70;;;10.35;;
65835;SDS011;52595;51.608;7.216;2023-10-09T12:26:56;19.48;;;9.52;;
65835;SDS011;52595;51.608;7.216;2023-10-09T12:29:22;17.70;;;9.88;;
65835;SDS011;52595;51.608;7.216;2023-10-09T12:31:49;18.05;;;9.68;;
65835;SDS011;52595;51.608;7.216;2023-10-09T12:34:23;16.67;;;9.63;;
65835;SDS011;52595;51.608;7.216;2023-10-09T12:36:56;19.25;;;9.88;;
65835;SDS011;52595;51.608;7.216;2023-10-09T12:39:29;18.70;;;9.82;;
65835;SDS011;52595;51.608;7.216;2023-10-09T12:42:05;18.10;;;9.65;;
65835;SDS011;52595;51.608;7.216;2023-10-09T12:44:34;18.23;;;10.15;;
65835;SDS011;52595;51.608;7.216;2023-10-09T12:47:04;17.40;;;9.95;;
65835;SDS011;52595;51.608;7.216;2023-10-09T12:49:31;18.70;;;9.95;;
65835;SDS011;52595;51.608;7.216;2023-10-09T12:51:56;19.55;;;9.95;;
65835;SDS011;52595;51.608;7.216;2023-10-09T12:54:22;20.02;;;10.30;;
65835;SDS011;52595;51.608;7.216;2023-10-09T12:56:52;18.65;;;10.80;;
65835;SDS011;52595;51.608;7.216;2023-10-09T12:59:18;20.88;;;10.18;;
65835;SDS011;52595;51.608;7.216;2023-10-09T13:01:45;21.00;;;11.05;;
65835;SDS011;52595;51.608;7.216;2023-10-09T13:04:18;18.23;;;10.63;;
65835;SDS011;52595;51.608;7.216;2023-10-09T13:06:47;18.70;;;10.52;;
65835;SDS011;52595;51.608;7.216;2023-10-09T13:09:13;17.52;;;10.90;;
65835;SDS011;52595;51.608;7.216;2023-10-09T13:11:40;19.55;;;10.93;;
65835;SDS011;52595;51.608;7.216;2023-10-09T13:14:10;22.10;;;10.65;;
65835;SDS011;52595;51.608;7.216;2023-10-09T13:16:45;18.67;;;10.52;;
65835;SDS011;52595;51.608;7.216;2023-10-09T13:19:10;22.25;;;10.95;;
65835;SDS011;52595;51.608;7.216;2023-10-09T13:21:37;19.65;;;10.63;;
65835;SDS011;52595;51.608;7.216;2023-10-09T13:24:05;19.33;;;10.93;;
65835;SDS011;52595;51.608;7.216;2023-10-09T13:26:49;26.77;;;11.15;;
65835;SDS011;52595;51.608;7.216;2023-10-09T13:29:17;16.80;;;10.43;;
65835;SDS011;52595;51.608;7.216;2023-10-09T13:31:47;20.88;;;12.00;;
65835;SDS011;52595;51.608;7.216;2023-10-09T13:34:16;19.73;;;10.90;;
65835;SDS011;52595;51.608;7.216;2023-10-09T13:36:42;18.45;;;10.75;;
65835;SDS011;52595;51.608;7.216;2023-10-09T13:39:20;20.80;;;10.43;;
65835;SDS011;52595;51.608;7.216;2023-10-09T13:41:46;16.55;;;10.73;;
65835;SDS011;52595;51.608;7.216;2023-10-09T13:44:12;19.75;;;11.38;;
65835;SDS011;52595;51.608;7.216;2023-10-09T13:46:38;22.52;;;11.05;;
65835;SDS011;52595;51.608;7.216;2023-10-09T13:49:06;21.17;;;10.93;;
65835;SDS011;52595;51.608;7.216;2023-10-09T13:51:39;18.08;;;11.15;;
65835;SDS011;52595;51.608;7.216;2023-10-09T13:54:12;19.95;;;11.73;;
65835;SDS011;52595;51.608;7.216;2023-10-09T13:56:53;21.42;;;11.45;;
65835;SDS011;52595;51.608;7.216;2023-10-09T13:59:19;21.42;;;11.50;;
65835;SDS011;52595;51.608;7.216;2023-10-09T14:01:47;22.25;;;11.00;;
65835;SDS011;52595;51.608;7.216;2023-10-09T14:04:13;19.00;;;11.10;;
65835;SDS011;52595;51.608;7.216;2023-10-09T14:06:43;20.38;;;11.35;;
65835;SDS011;52595;51.608;7.216;2023-10-09T14:09:09;20.90;;;11.30;;
65835;SDS011;52595;51.608;7.216;2023-10-09T14:11:36;19.98;;;11.10;;
65835;SDS011;52595;51.608;7.216;2023-10-09T14:14:09;18.45;;;11.20;;
65835;SDS011;52595;51.608;7.216;2023-10-09T14:16:35;20.65;;;10.90;;
65835;SDS011;52595;51.608;7.216;2023-10-09T14:19:00;20.63;;;10.65;;
65835;SDS011;52595;51.608;7.216;2023-10-09T14:21:31;19.77;;;11.40;;
65835;SDS011;52595;51.608;7.216;2023-10-09T14:24:03;17.08;;;10.90;;
65835;SDS011;52595;51.608;7.216;2023-10-09T14:26:40;20.35;;;11.32;;
65835;SDS011;52595;51.608;7.216;2023-10-09T14:29:06;18.02;;;11.32;;
65835;SDS011;52595;51.608;7.216;2023-10-09T14:31:32;18.85;;;10.38;;
65835;SDS011;52595;51.608;7.216;2023-10-09T14:34:03;21.38;;;11.15;;
65835;SDS011;52595;51.608;7.216;2023-10-09T14:36:29;20.13;;;11.30;;
65835;SDS011;52595;51.608;7.216;2023-10-09T14:38:59;20.90;;;10.60;;
65835;SDS011;52595;51.608;7.216;2023-10-09T14:41:26;22.67;;;11.25;;
65835;SDS011;52595;51.608;7.216;2023-10-09T14:43:53;18.48;;;10.75;;
65835;SDS011;52595;51.608;7.216;2023-10-09T14:46:19;19.25;;;10.82;;
65835;SDS011;52595;51.608;7.216;2023-10-09T14:48:54;19.23;;;11.52;;
65835;SDS011;52595;51.608;7.216;2023-10-09T14:51:26;22.88;;;11.15;;
65835;SDS011;52595;51.608;7.216;2023-10-09T14:53:58;20.02;;;10.45;;
65835;SDS011;52595;51.608;7.216;2023-10-09T14:56:26;19.27;;;11.25;;
65835;SDS011;52595;51.608;7.216;2023-10-09T14:58:56;18.13;;;11.02;;
65835;SDS011;52595;51.608;7.216;2023-10-09T15:01:23;21.45;;;11.82;;
65835;SDS011;52595;51.608;7.216;2023-10-09T15:03:50;21.58;;;11.73;;
65835;SDS011;52595;51.608;7.216;2023-10-09T15:06:20;18.98;;;11.68;;
65835;SDS011;52595;51.608;7.216;2023-10-09T15:08:46;20.40;;;11.60;;
65835;SDS011;52595;51.608;7.216;2023-10-09T15:11:12;19.75;;;11.63;;
65835;SDS011;52595;51.608;7.216;2023-10-09T15:13:39;24.63;;;11.80;;
65835;SDS011;52595;51.608;7.216;2023-10-09T15:16:05;20.88;;;12.18;;
65835;SDS011;52595;51.608;7.216;2023-10-09T15:18:30;21.25;;;11.65;;